Time;durP1;ratioP1;P1;durP2;ratioP2;P2;SDS_P1;SDS_P2;PMS_P1;PMS_P2;Temp;Humidity;BMP_temperature;BMP_pressure;BME280_temperature;BME280_humidity;BME280_pressure;Samples;Min_cycle;Max_cycle;Signal;HPM_P1;HPM_P2
2023/10/23 00:01:45;;;;;;;14.43;9.75;;;;;;;4.50;75.08;99141.69;5114338;28;20084;-61
2023/10/23 00:04:11;;;;;;;15.43;10.45;;;;;;;4.53;74.87;99129.09;5113609;28;20028;-61
2023/10/23 00:06:36;;;;;;;15.98;10.35;;;;;;;4.56;74.62;99122.72;5113480;28;20035;-60
2023/10/23 00:09:02;;;;;;;14.68;9.70;;;;;;;4.55;74.58;99111.28;5114336;28;20435;-60
2023/10/23 00:11:30;;;;;;;14.60;9.23;;;;;;;4.63;74.28;99115.19;5114035;28;20074;-60
2023/10/23 00:13:56;;;;;;;15.80;9.57;;;;;;;4.63;74.67;99124.00;5114227;28;20043;-56
2023/10/23 00:16:21;;;;;;;14.02;9.98;;;;;;;4.67;73.98;99125.50;5114114;28;20023;-58
2023/10/23 00:18:52;;;;;;;14.73;10.18;;;;;;;4.68;74.51;99119.25;5114604;28;20435;-60
2023/10/23 00:21:18;;;;;;;15.05;10.55;;;;;;;4.71;73.89;99116.38;5114444;28;20024;-59
2023/10/23 00:23:44;;;;;;;14.45;10.10;;;;;;;4.68;74.04;99105.13;5113912;28;20470;-59
2023/10/23 00:26:09;;;;;;;14.65;9.82;;;;;;;4.49;73.96;99074.56;5112938;28;20039;-61
2023/10/23 00:28:35;;;;;;;15.65;10.55;;;;;;;4.67;74.23;99088.38;5113963;28;20031;-59
2023/10/23 00:31:00;;;;;;;16.13;10.50;;;;;;;4.77;73.63;99096.56;5114091;28;20046;-60
2023/10/23 00:33:26;;;;;;;15.20;10.80;;;;;;;4.69;74.05;99077.66;5113626;28;20023;-60
2023/10/23 00:35:52;;;;;;;15.40;10.55;;;;;;;4.71;73.67;99057.22;5114010;28;20106;-61
2023/10/23 00:38:18;;;;;;;13.65;10.10;;;;;;;4.64;74.14;99054.13;5113747;28;20037;-60
2023/10/23 00:40:43;;;;;;;12.05;9.40;;;;;;;4.63;73.76;99038.31;5113772;28;20059;-60
2023/10/23 00:43:19;;;;;;;13.45;9.80;;;;;;;4.66;74.34;99015.09;5113526;28;20144;-59
2023/10/23 00:45:48;;;;;;;13.23;9.25;;;;;;;4.81;73.33;99013.16;5112996;28;20028;-61
2023/10/23 00:48:14;;;;;;;11.95;9.70;;;;;;;4.78;73.05;98994.81;5113474;28;20039;-60
2023/10/23 00:50:39;;;;;;;14.27;9.70;;;;;;;4.54;73.06;98955.81;5113847;28;20027;-60
2023/10/23 00:53:05;;;;;;;13.18;9.63;;;;;;;4.68;72.81;98983.16;5113734;28;20028;-61
2023/10/23 00:55:31;;;;;;;13.68;10.02;;;;;;;4.63;73.34;98985.28;5113645;28;20031;-60
2023/10/23 00:57:57;;;;;;;13.25;10.35;;;;;;;4.59;73.09;99001.41;5112327;28;20028;-62
2023/10/23 01:00:23;;;;;;;14.15;10.05;;;;;;;4.34;73.57;98972.25;5112882;28;20031;-62
2023/10/23 01:02:50;;;;;;;12.57;9.82;;;;;;;4.58;74.46;99030.66;5113715;28;20046;-58
2023/10/23 01:05:15;;;;;;;15.07;9.65;;;;;;;4.60;74.69;99034.91;5112189;28;20055;-59
2023/10/23 01:07:41;;;;;;;15.93;10.32;;;;;;;4.71;73.85;99031.53;5112297;28;20469;-61
2023/10/23 01:10:07;;;;;;;13.93;9.77;;;;;;;4.77;73.52;99037.34;5113458;28;20358;-61
2023/10/23 01:12:33;;;;;;;15.15;10.57;;;;;;;4.70;73.85;99021.88;5113477;28;20442;-61
2023/10/23 01:14:58;;;;;;;13.40;10.27;;;;;;;4.71;74.07;99022.75;5113106;28;20031;-59
2023/10/23 01:17:24;;;;;;;16.00;11.23;;;;;;;4.78;73.74;99016.03;5113322;28;20031;-61
2023/10/23 01:19:49;;;;;;;15.07;10.75;;;;;;;4.64;73.13;98987.84;5112424;28;20434;-60
2023/10/23 01:22:15;;;;;;;16.50;11.02;;;;;;;4.83;74.19;99008.59;5112487;28;20043;-60
2023/10/23 01:24:44;;;;;;;17.05;10.75;;;;;;;4.87;74.07;98990.69;5112024;28;20458;-60
2023/10/23 01:27:10;;;;;;;14.70;11.15;;;;;;;4.87;74.00;98996.81;5113303;28;20040;-61
2023/10/23 01:29:36;;;;;;;14.52;10.27;;;;;;;4.90;73.46;98995.78;5115731;28;20095;-60
2023/10/23 01:32:03;;;;;;;16.25;10.82;;;;;;;4.94;73.54;98999.91;5117523;28;20331;-60
2023/10/23 01:34:28;;;;;;;16.40;11.45;;;;;;;4.89;73.39;98992.25;5117276;28;20064;-60
2023/10/23 01:36:54;;;;;;;17.20;11.15;;;;;;;4.73;72.71;98957.19;5117441;28;20031;-58
2023/10/23 01:39:19;;;;;;;17.05;10.73;;;;;;;4.90;73.30;98987.81;5116407;28;20097;-60
2023/10/23 01:41:45;;;;;;;14.68;10.55;;;;;;;4.90;73.24;98985.16;5117498;28;20084;-58
2023/10/23 01:44:10;;;;;;;14.20;9.60;;;;;;;4.91;73.30;98967.41;5117034;28;20077;-60
2023/10/23 01:46:36;;;;;;;15.00;11.02;;;;;;;4.93;73.17;98966.38;5116796;28;20450;-60
2023/10/23 01:49:01;;;;;;;16.38;11.45;;;;;;;4.93;73.59;98966.38;5117085;28;20081;-62
2023/10/23 01:51:27;;;;;;;16.75;11.27;;;;;;;4.85;73.53;98947.50;5117248;28;20391;-61
2023/10/23 01:53:52;;;;;;;17.63;11.48;;;;;;;4.80;72.61;98923.09;5117505;28;20028;-61
2023/10/23 01:56:18;;;;;;;15.63;11.20;;;;;;;4.94;73.45;98965.41;5116675;28;20027;-65
2023/10/23 01:58:43;;;;;;;15.65;10.77;;;;;;;4.92;73.99;98950.56;5117025;28;20058;-62
2023/10/23 02:01:22;;;;;;;16.75;10.85;;;;;;;5.07;73.53;98973.34;5117113;28;20084;-62
2023/10/23 02:03:49;;;;;;;18.77;11.00;;;;;;;4.99;73.27;98962.44;5116068;28;20409;-60
2023/10/23 02:06:15;;;;;;;14.80;10.73;;;;;;;4.97;73.30;98946.63;5116790;28;20031;-60
2023/10/23 02:08:41;;;;;;;14.63;9.90;;;;;;;5.01;73.19;98949.91;5116497;28;20035;-59
2023/10/23 02:11:08;;;;;;;14.23;10.25;;;;;;;5.03;73.25;98958.59;5116588;28;20055;-60
2023/10/23 02:13:34;;;;;;;13.45;9.73;;;;;;;5.10;73.10;98961.66;5116673;28;20024;-61
2023/10/23 02:16:00;;;;;;;15.25;9.63;;;;;;;5.10;72.73;98954.53;5116333;28;20032;-58
2023/10/23 02:18:26;;;;;;;14.85;10.02;;;;;;;5.11;73.17;98940.31;5116705;28;20020;-60
2023/10/23 02:20:52;;;;;;;17.05;11.07;;;;;;;5.08;73.67;98926.44;5116379;28;20039;-60
2023/10/23 02:23:17;;;;;;;16.20;10.65;;;;;;;5.19;72.87;98947.72;5114889;28;20381;-60
2023/10/23 02:25:43;;;;;;;16.70;10.30;;;;;;;5.11;72.24;98918.25;5115347;28;20063;-63
2023/10/23 02:28:08;;;;;;;13.70;9.98;;;;;;;5.12;72.55;98922.59;5114932;28;20115;-61
2023/10/23 02:30:37;;;;;;;12.93;9.60;;;;;;;5.16;72.24;98924.91;5114742;28;20046;-61
2023/10/23 02:33:03;;;;;;;13.88;10.07;;;;;;;5.08;73.05;98929.94;5114343;28;20122;-61
2023/10/23 02:35:29;;;;;;;14.98;9.73;;;;;;;5.03;73.21;98921.47;5114998;28;20066;-61
2023/10/23 02:37:54;;;;;;;12.93;9.57;;;;;;;5.12;73.57;98912.00;5114691;28;20030;-61
2023/10/23 02:40:20;;;;;;;13.90;9.82;;;;;;;5.15;73.06;98904.63;5114758;28;20032;-60
2023/10/23 02:42:46;;;;;;;15.35;9.82;;;;;;;5.12;73.07;98886.28;5114805;28;20049;-60
2023/10/23 02:45:13;;;;;;;13.35;9.20;;;;;;;5.21;72.97;98895.38;5114740;28;20024;-60
2023/10/23 02:47:39;;;;;;;12.50;8.90;;;;;;;5.19;72.81;98889.34;5114957;28;20045;-60
2023/10/23 02:50:05;;;;;;;12.90;9.02;;;;;;;5.00;73.03;98853.53;5113989;28;20031;-59
2023/10/23 02:52:30;;;;;;;14.93;9.60;;;;;;;5.19;72.81;98881.38;5114707;28;20362;-63
2023/10/23 02:54:56;;;;;;;11.68;8.77;;;;;;;5.19;73.11;98875.25;5114766;28;20055;-60
2023/10/23 02:57:21;;;;;;;14.52;9.25;;;;;;;5.23;73.06;98876.72;5114754;28;20027;-60
2023/10/23 02:59:47;;;;;;;12.85;9.60;;;;;;;5.27;73.05;98876.34;5114550;28;20088;-61
2023/10/23 03:02:14;;;;;;;13.90;9.77;;;;;;;5.27;73.08;98875.53;5114153;28;20027;-61
2023/10/23 03:04:39;;;;;;;14.13;9.75;;;;;;;5.31;72.59;98874.31;5113791;28;20109;-61
2023/10/23 03:07:05;;;;;;;14.15;9.65;;;;;;;5.29;72.72;98861.16;5114604;28;20452;-63
2023/10/23 03:09:31;;;;;;;13.30;9.57;;;;;;;5.27;72.74;98864.91;5114595;28;20032;-61
2023/10/23 03:11:56;;;;;;;13.70;9.75;;;;;;;5.24;73.09;98858.00;5113991;28;20039;-62
2023/10/23 03:14:21;;;;;;;13.80;9.82;;;;;;;5.29;73.04;98855.84;5114309;28;20031;-59
2023/10/23 03:16:47;;;;;;;16.00;10.95;;;;;;;5.31;72.40;98848.66;5114597;28;20445;-58
2023/10/23 03:19:12;;;;;;;15.63;10.63;;;;;;;5.27;72.92;98841.84;5114184;28;20028;-60
2023/10/23 03:21:38;;;;;;;14.32;9.45;;;;;;;5.23;72.75;98839.56;5114160;28;20071;-58
2023/10/23 03:24:05;;;;;;;14.70;9.90;;;;;;;5.27;72.94;98838.38;5071426;28;1227775;-60
2023/10/23 03:26:30;;;;;;;15.38;10.32;;;;;;;5.25;72.69;98829.66;5115607;28;20043;-60
2023/10/23 03:28:56;;;;;;;14.73;9.48;;;;;;;5.03;73.58;98787.00;5115289;28;20032;-60
2023/10/23 03:31:22;;;;;;;15.50;9.50;;;;;;;5.26;72.92;98812.78;5113850;28;20054;-60
2023/10/23 03:33:48;;;;;;;13.68;9.70;;;;;;;5.31;72.46;98800.88;5114235;28;20034;-60
2023/10/23 03:36:14;;;;;;;11.95;8.65;;;;;;;5.26;72.23;98783.59;5114098;28;20024;-60
2023/10/23 03:38:39;;;;;;;12.18;8.43;;;;;;;5.24;72.68;98790.81;5114883;28;20027;-60
2023/10/23 03:41:05;;;;;;;11.65;8.05;;;;;;;5.22;72.53;98796.25;5114788;28;20034;-61
2023/10/23 03:43:30;;;;;;;10.18;7.57;;;;;;;5.20;73.53;98808.78;5114868;28;20046;-60
2023/10/23 03:45:56;;;;;;;9.52;7.18;;;;;;;5.17;73.59;98785.13;5114056;28;20130;-61
2023/10/23 03:48:21;;;;;;;8.82;6.18;;;;;;;5.26;73.03;98807.47;5114693;28;20030;-62
2023/10/23 03:50:47;;;;;;;10.80;7.13;;;;;;;5.30;73.39;98798.31;5113383;28;20036;-61
2023/10/23 03:53:13;;;;;;;9.30;7.25;;;;;;;5.29;73.52;98792.16;5113975;28;20434;-61
2023/10/23 03:55:38;;;;;;;10.68;7.03;;;;;;;5.37;73.07;98790.75;5113921;28;20036;-61
2023/10/23 03:58:04;;;;;;;9.73;6.72;;;;;;;5.32;73.22;98778.69;5114768;28;20085;-65
2023/10/23 04:00:30;;;;;;;10.38;7.30;;;;;;;5.40;73.12;98774.59;5114609;28;20095;-60
2023/10/23 04:02:55;;;;;;;10.00;6.57;;;;;;;5.43;73.70;98782.31;5114505;28;20028;-60
2023/10/23 04:05:21;;;;;;;10.48;6.22;;;;;;;5.51;72.46;98768.44;5114695;28;20028;-61
2023/10/23 04:07:47;;;;;;;9.52;6.70;;;;;;;5.24;73.16;98730.63;5114444;28;20115;-60
2023/10/23 04:10:13;;;;;;;10.02;6.38;;;;;;;5.40;73.38;98775.41;5114268;28;20042;-63
2023/10/23 04:12:40;;;;;;;8.98;6.47;;;;;;;5.32;73.36;98759.22;5113065;28;20031;-58
2023/10/23 04:15:06;;;;;;;9.52;6.93;;;;;;;5.45;72.98;98770.63;5113836;28;20044;-64
2023/10/23 04:17:31;;;;;;;11.70;7.07;;;;;;;5.46;73.70;98758.19;5114216;28;20427;-60
2023/10/23 04:19:57;;;;;;;10.80;7.07;;;;;;;5.40;73.17;98750.69;5114221;28;20446;-55
2023/10/23 04:22:22;;;;;;;11.98;7.30;;;;;;;5.41;73.81;98739.09;5113968;28;20024;-60
2023/10/23 04:24:48;;;;;;;10.82;7.50;;;;;;;5.30;73.45;98716.91;5113691;27;20120;-59
2023/10/23 04:27:14;;;;;;;13.27;8.02;;;;;;;5.42;73.75;98727.53;5114355;28;20032;-58
2023/10/23 04:29:40;;;;;;;12.57;7.32;;;;;;;5.44;73.71;98718.50;5113900;28;20122;-54
2023/10/23 04:32:05;;;;;;;13.82;7.68;;;;;;;5.47;73.58;98720.03;5113070;28;20034;-59
2023/10/23 04:34:31;;;;;;;13.63;7.78;;;;;;;5.46;73.78;98721.88;5113718;28;20035;-59
2023/10/23 04:36:56;;;;;;;13.27;7.50;;;;;;;5.36;74.59;98707.59;5113806;27;20323;-60
2023/10/23 04:39:22;;;;;;;14.32;8.27;;;;;;;5.43;74.58;98715.94;5113512;28;20027;-60
2023/10/23 04:41:47;;;;;;;16.88;8.10;;;;;;;5.48;74.59;98716.44;5113641;28;20047;-61
2023/10/23 04:44:13;;;;;;;15.15;8.48;;;;;;;5.53;74.36;98716.91;5113936;28;20028;-59
2023/10/23 04:46:38;;;;;;;17.17;9.07;;;;;;;5.62;73.60;98706.56;5113423;28;20057;-61
2023/10/23 04:49:04;;;;;;;22.38;9.70;;;;;;;5.53;74.00;98706.28;5113565;28;20042;-60
2023/10/23 04:51:32;;;;;;;19.40;9.52;;;;;;;5.60;74.16;98711.97;5113510;28;20370;-60
2023/10/23 04:53:57;;;;;;;19.05;9.77;;;;;;;5.58;73.75;98697.97;5112783;28;20525;-62
2023/10/23 04:56:23;;;;;;;15.35;9.02;;;;;;;5.52;74.43;98693.97;5113195;28;20049;-61
2023/10/23 04:58:48;;;;;;;23.42;10.35;;;;;;;5.51;74.51;98689.63;5113230;28;20046;-61
2023/10/23 05:01:18;;;;;;;20.92;10.40;;;;;;;5.53;74.94;98693.00;5113606;28;20442;-61
2023/10/23 05:03:43;;;;;;;18.63;9.85;;;;;;;5.52;73.92;98680.69;5113259;28;20063;-61
2023/10/23 05:06:09;;;;;;;25.35;10.43;;;;;;;5.51;74.85;98694.13;5113414;28;20428;-62
2023/10/23 05:08:35;;;;;;;20.08;10.40;;;;;;;5.49;74.81;98688.09;5113370;28;20115;-59
2023/10/23 05:11:07;;;;;;;22.08;9.93;;;;;;;5.54;74.93;98683.25;5095580;28;20129;-61
2023/10/23 05:13:33;;;;;;;19.98;9.80;;;;;;;5.50;75.17;98679.16;5112468;28;20032;-57
2023/10/23 05:16:06;;;;;;;27.65;10.27;;;;;;;5.60;75.17;98682.75;5113236;28;20053;-60
2023/10/23 05:18:32;;;;;;;25.40;11.32;;;;;;;5.50;75.15;98661.41;5113189;28;20072;-56
2023/10/23 05:20:58;;;;;;;20.50;11.05;;;;;;;5.59;74.83;98660.69;5113324;28;20111;-53
2023/10/23 05:23:24;;;;;;;23.17;11.35;;;;;;;5.54;75.30;98651.41;5113387;28;20077;-57
2023/10/23 05:25:50;;;;;;;22.85;10.45;;;;;;;5.54;75.63;98660.19;5113419;28;20036;-62
2023/10/23 05:28:15;;;;;;;27.60;11.45;;;;;;;5.60;75.31;98657.06;5113203;28;20093;-62
2023/10/23 05:30:41;;;;;;;24.20;11.30;;;;;;;5.67;75.74;98672.50;5112380;28;20084;-60
2023/10/23 05:33:06;;;;;;;38.20;11.65;;;;;;;5.69;75.38;98668.78;5112376;28;20036;-62
2023/10/23 05:35:32;;;;;;;29.23;11.07;;;;;;;5.69;75.22;98646.69;5113067;28;20134;-59
2023/10/23 05:37:57;;;;;;;25.08;11.45;;;;;;;5.77;75.35;98657.53;5112073;28;20469;-62
2023/10/23 05:40:22;;;;;;;28.58;12.38;;;;;;;5.76;75.28;98650.53;5113297;28;20059;-64
2023/10/23 05:42:48;;;;;;;27.42;12.07;;;;;;;5.81;75.54;98651.03;5113274;28;20111;-60
2023/10/23 05:45:14;;;;;;;26.95;12.52;;;;;;;5.91;75.10;98652.94;5113036;28;20030;-62
2023/10/23 05:47:39;;;;;;;27.25;11.75;;;;;;;5.92;74.77;98650.16;5113183;28;20484;-62
2023/10/23 05:50:05;;;;;;;29.15;12.32;;;;;;;5.87;74.98;98647.88;5112193;28;20024;-62
2023/10/23 05:52:30;;;;;;;30.58;11.85;;;;;;;5.82;75.58;98634.13;5112962;28;20120;-62
2023/10/23 05:54:56;;;;;;;30.73;12.18;;;;;;;5.86;74.87;98648.84;5112942;28;20166;-62
2023/10/23 05:57:21;;;;;;;32.75;12.32;;;;;;;5.87;74.68;98642.56;5112485;28;20116;-62
2023/10/23 05:59:47;;;;;;;27.25;12.35;;;;;;;5.83;74.77;98643.78;5113025;28;20019;-63
2023/10/23 06:02:12;;;;;;;30.02;12.55;;;;;;;5.81;75.02;98648.38;5112927;28;20325;-60
2023/10/23 06:04:42;;;;;;;28.30;11.88;;;;;;;5.53;75.41;98604.56;5113120;28;20035;-57
2023/10/23 06:07:08;;;;;;;44.42;12.38;;;;;;;5.76;75.39;98634.59;5113208;28;20084;-56
2023/10/23 06:09:33;;;;;;;31.67;12.85;;;;;;;5.80;75.36;98641.38;5112691;28;20028;-60
2023/10/23 06:11:59;;;;;;;29.33;12.60;;;;;;;5.76;75.42;98629.28;5112575;28;20070;-60
2023/10/23 06:14:24;;;;;;;31.35;12.55;;;;;;;5.79;75.47;98642.34;5111926;28;20085;-60
2023/10/23 06:16:50;;;;;;;26.98;13.07;;;;;;;5.82;75.49;98643.88;5116715;28;20038;-61
2023/10/23 06:19:17;;;;;;;31.55;13.30;;;;;;;5.83;75.67;98626.97;5115625;28;20362;-61
2023/10/23 06:21:42;;;;;;;32.97;12.73;;;;;;;5.84;75.85;98621.56;5116306;28;20449;-63
2023/10/23 06:24:08;;;;;;;26.13;12.43;;;;;;;5.83;76.15;98611.91;5116797;27;20051;-60
2023/10/23 06:26:34;;;;;;;34.53;12.93;;;;;;;5.97;76.20;98625.88;5116409;28;20060;-61
2023/10/23 06:29:00;;;;;;;26.52;12.27;;;;;;;5.83;75.76;98588.00;5116230;28;20050;-59
2023/10/23 06:31:25;;;;;;;31.00;12.80;;;;;;;5.98;75.88;98607.16;5116457;28;20031;-60
2023/10/23 06:33:52;;;;;;;26.55;12.15;;;;;;;6.01;76.18;98611.38;5116116;28;20089;-60
2023/10/23 06:36:18;;;;;;;24.90;11.18;;;;;;;6.06;76.53;98611.88;5115359;28;20028;-61
2023/10/23 06:38:43;;;;;;;27.08;12.32;;;;;;;6.13;76.42;98612.19;5116480;28;20484;-60
2023/10/23 06:41:09;;;;;;;23.25;11.18;;;;;;;6.22;75.26;98607.94;5116544;28;20518;-58
2023/10/23 06:43:38;;;;;;;21.35;11.65;;;;;;;6.18;75.53;98608.22;5114962;28;20031;-59
2023/10/23 06:46:04;;;;;;;26.17;11.20;;;;;;;6.13;75.22;98602.44;5116021;28;20102;-61
2023/10/23 06:48:30;;;;;;;24.48;10.52;;;;;;;6.02;75.83;98603.31;5116245;28;20482;-61
2023/10/23 06:50:56;;;;;;;24.15;11.20;;;;;;;6.09;76.16;98603.66;5115685;28;20032;-60
2023/10/23 06:53:21;;;;;;;25.70;11.15;;;;;;;6.15;75.07;98607.63;5115623;28;20027;-62
2023/10/23 06:55:48;;;;;;;19.85;10.52;;;;;;;6.06;75.32;98603.91;5115617;28;20024;-59
2023/10/23 06:58:14;;;;;;;18.50;9.68;;;;;;;6.06;75.52;98600.41;5115316;28;20023;-59
2023/10/23 07:00:40;;;;;;;19.73;10.30;;;;;;;6.06;75.34;98587.97;5115636;28;20024;-60
2023/10/23 07:03:05;;;;;;;19.45;10.00;;;;;;;6.12;75.42;98600.75;5115676;27;20054;-63
2023/10/23 07:05:31;;;;;;;19.48;9.85;;;;;;;6.13;74.96;98589.16;5115776;28;20446;-62
2023/10/23 07:07:56;;;;;;;19.75;10.80;;;;;;;6.10;75.25;98585.88;5115512;28;20027;-61
2023/10/23 07:10:22;;;;;;;21.48;10.15;;;;;;;6.09;75.62;98587.72;5115492;28;20081;-57
2023/10/23 07:12:47;;;;;;;15.95;9.52;;;;;;;6.15;76.47;98587.19;5115322;28;20030;-60
2023/10/23 07:15:13;;;;;;;19.15;9.98;;;;;;;6.21;76.23;98585.00;5114945;28;20044;-60
2023/10/23 07:17:39;;;;;;;22.88;9.77;;;;;;;6.31;76.09;98583.28;5114671;28;20124;-61
2023/10/23 07:20:06;;;;;;;18.85;9.52;;;;;;;6.29;75.66;98577.25;5115293;28;20059;-62
2023/10/23 07:22:36;;;;;;;18.88;9.23;;;;;;;6.55;75.44;98587.53;5115069;28;20031;-61
2023/10/23 07:25:02;;;;;;;18.30;9.80;;;;;;;6.56;74.54;98584.72;5114243;28;20040;-68
2023/10/23 07:27:30;;;;;;;21.50;9.77;;;;;;;6.28;74.22;98536.53;5114130;28;20469;-63
2023/10/23 07:29:55;;;;;;;18.75;9.43;;;;;;;6.44;74.85;98575.97;5114071;28;20027;-61
2023/10/23 07:32:21;;;;;;;15.10;9.38;;;;;;;6.49;75.02;98572.94;5113773;28;20035;-61
2023/10/23 07:34:46;;;;;;;16.83;9.75;;;;;;;6.54;75.47;98576.03;5115188;28;20020;-63
2023/10/23 07:37:17;;;;;;;20.95;10.98;;;;;;;6.61;75.15;98565.72;5114619;28;20046;-61
2023/10/23 07:39:50;;;;;;;18.17;10.73;;;;;;;6.47;74.87;98530.50;5115196;28;20157;-63
2023/10/23 07:42:15;;;;;;;20.63;9.82;;;;;;;6.77;75.46;98559.94;5097756;28;20050;-61
2023/10/23 07:44:42;;;;;;;19.77;9.20;;;;;;;6.82;74.74;98556.91;5114767;28;20359;-60
2023/10/23 07:47:07;;;;;;;16.67;9.50;;;;;;;6.78;74.75;98544.84;5114008;28;20031;-62
2023/10/23 07:49:33;;;;;;;21.83;9.52;;;;;;;6.98;74.80;98559.09;5114023;28;20034;-62
2023/10/23 07:51:58;;;;;;;17.90;9.73;;;;;;;7.03;74.91;98546.22;5114314;28;20042;-62
2023/10/23 07:54:24;;;;;;;18.05;9.85;;;;;;;7.11;74.55;98558.88;5114741;28;20085;-60
2023/10/23 07:56:49;;;;;;;17.17;9.52;;;;;;;7.17;74.34;98556.53;5114515;28;20030;-59
2023/10/23 07:59:17;;;;;;;22.17;8.70;;;;;;;7.22;73.79;98550.78;5114718;28;20030;-61
2023/10/23 08:01:42;;;;;;;16.15;8.90;;;;;;;7.19;73.61;98543.06;5114204;28;20066;-61
2023/10/23 08:04:08;;;;;;;18.55;10.50;;;;;;;7.01;73.78;98514.44;5113228;28;20059;-60
2023/10/23 08:06:34;;;;;;;18.38;10.43;;;;;;;7.19;73.78;98540.41;5114214;28;20529;-60
2023/10/23 08:09:00;;;;;;;14.90;10.30;;;;;;;7.26;74.14;98540.72;5114002;27;20111;-62
2023/10/23 08:11:25;;;;;;;20.20;10.18;;;;;;;7.30;73.73;98535.00;5114404;28;20050;-59
2023/10/23 08:13:51;;;;;;;18.13;9.85;;;;;;;7.36;73.70;98532.75;5113742;28;20027;-59
2023/10/23 08:16:16;;;;;;;16.98;9.07;;;;;;;7.37;73.64;98529.13;5114147;28;20031;-61
2023/10/23 08:18:42;;;;;;;17.88;9.18;;;;;;;7.46;73.85;98530.94;5113043;28;20089;-61
2023/10/23 08:21:12;;;;;;;16.38;9.60;;;;;;;7.54;73.89;98532.94;5113923;28;20160;-62
2023/10/23 08:23:39;;;;;;;15.73;9.90;;;;;;;7.52;73.37;98522.44;5113935;28;20050;-61
2023/10/23 08:26:05;;;;;;;14.57;9.70;;;;;;;7.65;73.30;98526.66;5113876;28;20074;-63
2023/10/23 08:28:31;;;;;;;14.18;9.77;;;;;;;7.71;72.79;98524.28;5113998;28;20468;-63
2023/10/23 08:30:56;;;;;;;16.00;9.48;;;;;;;7.74;72.34;98523.19;5113405;28;20039;-61
2023/10/23 08:33:22;;;;;;;13.80;9.68;;;;;;;7.60;72.91;98498.63;5113070;28;20059;-61
2023/10/23 08:35:47;;;;;;;15.32;10.25;;;;;;;7.76;72.13;98515.91;5114094;28;20467;-60
2023/10/23 08:38:13;;;;;;;16.27;10.57;;;;;;;7.73;73.16;98518.84;5113353;28;20411;-63
2023/10/23 08:40:39;;;;;;;17.35;11.35;;;;;;;7.75;72.60;98504.38;5113622;28;20477;-63
2023/10/23 08:43:05;;;;;;;17.77;11.32;;;;;;;7.74;72.54;98500.03;5113854;28;20024;-65
2023/10/23 08:45:31;;;;;;;17.13;10.82;;;;;;;7.77;72.41;98498.94;5113862;28;20035;-61
2023/10/23 08:47:57;;;;;;;18.92;10.98;;;;;;;7.82;72.67;98502.00;5113293;28;20084;-61
2023/10/23 08:50:24;;;;;;;15.80;10.13;;;;;;;7.85;72.70;98498.25;5113441;28;20110;-62
2023/10/23 08:52:57;;;;;;;14.77;9.30;;;;;;;7.90;72.21;98491.50;5113602;28;20039;-61
2023/10/23 08:55:25;;;;;;;16.88;10.13;;;;;;;7.86;72.17;98482.09;5113578;28;20027;-63
2023/10/23 08:57:53;;;;;;;17.73;10.02;;;;;;;7.83;71.80;98487.72;5113282;28;20024;-60
2023/10/23 09:00:22;;;;;;;15.93;10.25;;;;;;;7.87;71.61;98481.13;5113628;28;20442;-62
2023/10/23 09:02:49;;;;;;;15.25;10.40;;;;;;;7.80;72.11;98474.66;5112979;28;20057;-63
2023/10/23 09:05:15;;;;;;;18.40;10.82;;;;;;;7.79;72.53;98480.97;5113435;28;20024;-61
2023/10/23 09:07:40;;;;;;;18.23;10.80;;;;;;;7.82;71.52;98474.50;5112216;28;20110;-61
2023/10/23 09:10:06;;;;;;;16.95;11.07;;;;;;;7.80;71.72;98476.47;5112509;28;20032;-60
2023/10/23 09:12:36;;;;;;;19.55;12.35;;;;;;;7.86;71.25;98468.78;5113443;28;20122;-62
2023/10/23 09:15:16;;;;;;;19.02;12.00;;;;;;;7.88;71.69;98452.66;5113212;28;20063;-60
2023/10/23 09:17:43;;;;;;;21.77;13.02;;;;;;;7.44;71.41;98410.41;5111988;28;20024;-60
2023/10/23 09:20:22;;;;;;;21.58;12.77;;;;;;;7.77;72.09;98440.31;5095629;28;20089;-61
2023/10/23 09:22:48;;;;;;;23.13;12.90;;;;;;;7.69;72.02;98443.66;5113424;28;20362;-63
2023/10/23 09:25:21;;;;;;;20.58;12.55;;;;;;;7.73;72.06;98436.25;5113250;28;20152;-61
2023/10/23 09:27:47;;;;;;;26.13;12.65;;;;;;;7.39;72.52;98372.72;5112713;28;20039;-61
2023/10/23 09:30:15;;;;;;;19.35;13.43;;;;;;;7.82;72.21;98432.72;5113417;28;20101;-61
2023/10/23 09:32:40;;;;;;;20.30;13.50;;;;;;;7.85;72.78;98432.44;5112314;28;20065;-61
2023/10/23 09:35:10;;;;;;;22.15;13.90;;;;;;;7.93;72.18;98433.56;5112867;28;20031;-62
2023/10/23 09:37:39;;;;;;;19.35;14.15;;;;;;;7.94;71.87;98425.44;5112875;28;20353;-62
2023/10/23 09:40:13;;;;;;;25.75;15.32;;;;;;;7.86;71.87;98404.81;5113068;28;20031;-61
2023/10/23 09:42:42;;;;;;;23.85;15.18;;;;;;;7.76;71.96;98396.00;5113141;28;20107;-61
2023/10/23 09:45:09;;;;;;;26.55;15.68;;;;;;;7.81;71.99;98411.53;5111872;28;20343;-61
2023/10/23 09:47:37;;;;;;;22.73;15.63;;;;;;;7.84;72.17;98422.78;5112960;28;20027;-61
2023/10/23 09:50:03;;;;;;;28.77;16.50;;;;;;;7.82;72.72;98421.22;5113883;28;20069;-62
2023/10/23 09:52:35;;;;;;;27.13;16.40;;;;;;;7.88;73.11;98423.34;5116812;28;20514;-62
2023/10/23 09:55:05;;;;;;;23.60;16.02;;;;;;;7.96;73.52;98414.66;5116707;28;20130;-62
2023/10/23 09:57:37;;;;;;;28.65;17.20;;;;;;;8.00;72.83;98400.88;5116657;28;20038;-61
2023/10/23 10:00:13;;;;;;;28.63;17.40;;;;;;;8.05;72.69;98403.94;5116670;28;20028;-61
2023/10/23 10:02:52;;;;;;;28.83;16.80;;;;;;;8.08;72.53;98404.63;5116498;28;20112;-62
2023/10/23 10:05:44;;;;;;;26.58;16.33;;;;;;;8.22;72.27;98406.03;5116303;28;20405;-62
2023/10/23 10:08:18;;;;;;;26.45;16.80;;;;;;;8.22;72.71;98404.19;5116544;28;20074;-62
2023/10/23 10:10:44;;;;;;;24.95;16.63;;;;;;;8.14;72.15;98394.25;5115351;28;20068;-62
2023/10/23 10:13:13;;;;;;;22.77;15.90;;;;;;;8.17;72.27;98393.13;5116773;28;20096;-62
2023/10/23 10:15:39;;;;;;;22.27;15.65;;;;;;;8.14;72.45;98382.75;5116583;28;20032;-62
2023/10/23 10:18:06;;;;;;;21.98;16.13;;;;;;;8.16;71.86;98383.47;5115135;28;20038;-61
2023/10/23 10:20:32;;;;;;;23.65;16.25;;;;;;;8.00;72.32;98355.56;5116235;28;20388;-62
2023/10/23 10:23:11;;;;;;;27.42;17.75;;;;;;;8.24;72.17;98380.06;5116298;28;20028;-62
2023/10/23 10:25:38;;;;;;;24.17;16.65;;;;;;;8.15;72.18;98377.28;5116249;28;20079;-61
2023/10/23 10:28:07;;;;;;;27.70;16.20;;;;;;;8.15;72.58;98379.94;5116005;28;20076;-61
2023/10/23 10:30:58;;;;;;;28.25;17.65;;;;;;;8.27;72.57;98377.13;5116178;28;20031;-62
2023/10/23 10:33:29;;;;;;;24.33;16.65;;;;;;;8.17;72.65;98364.63;5112217;28;20382;-63
2023/10/23 10:36:04;;;;;;;23.45;17.42;;;;;;;8.24;72.18;98369.41;5116056;28;20050;-61
2023/10/23 10:38:32;;;;;;;25.52;18.08;;;;;;;8.19;72.38;98370.66;5116465;28;20038;-61
2023/10/23 10:41:02;;;;;;;25.75;17.25;;;;;;;8.20;72.71;98363.50;5115974;28;20039;-63
2023/10/23 10:43:39;;;;;;;23.38;17.13;;;;;;;8.25;72.82;98363.91;5115786;28;20055;-61
2023/10/23 10:46:21;;;;;;;25.17;17.23;;;;;;;8.32;72.17;98358.84;5115895;28;20019;-62
2023/10/23 10:48:49;;;;;;;27.48;17.75;;;;;;;8.15;72.29;98353.28;5115932;28;20362;-62
2023/10/23 10:51:19;;;;;;;27.00;17.55;;;;;;;8.10;73.14;98344.88;5114597;28;20361;-61
2023/10/23 10:53:46;;;;;;;25.70;17.40;;;;;;;8.13;72.48;98357.91;5115919;28;20082;-62
2023/10/23 10:56:12;;;;;;;23.50;16.60;;;;;;;8.14;72.10;98345.44;5115867;28;20035;-61
2023/10/23 10:58:42;;;;;;;22.23;16.67;;;;;;;8.05;72.89;98342.63;5115858;28;20028;-61
2023/10/23 11:01:08;;;;;;;21.77;16.30;;;;;;;8.06;72.86;98338.16;5114292;28;20469;-61
2023/10/23 11:03:34;;;;;;;24.38;17.15;;;;;;;8.08;73.16;98349.50;5114599;28;20028;-63
2023/10/23 11:06:00;;;;;;;25.17;17.98;;;;;;;8.07;73.01;98339.84;5115643;28;20024;-63
2023/10/23 11:08:29;;;;;;;22.85;17.15;;;;;;;7.99;72.77;98307.75;5115260;28;20046;-64
2023/10/23 11:10:57;;;;;;;23.33;16.60;;;;;;;7.94;72.25;98296.66;5114761;28;20374;-63
2023/10/23 11:13:22;;;;;;;23.83;17.50;;;;;;;8.16;72.46;98330.13;5115173;27;20027;-61
2023/10/23 11:15:48;;;;;;;25.30;18.92;;;;;;;8.15;72.63;98331.94;5114694;28;20107;-62
2023/10/23 11:18:16;;;;;;;27.50;19.40;;;;;;;8.13;72.53;98330.44;5115484;28;20024;-62
2023/10/23 11:20:44;;;;;;;28.65;21.00;;;;;;;8.09;72.55;98331.72;5097457;28;20031;-63
2023/10/23 11:23:13;;;;;;;27.73;20.80;;;;;;;8.13;73.55;98325.94;5114822;28;20055;-62
2023/10/23 11:25:39;;;;;;;27.85;20.27;;;;;;;7.92;73.45;98272.84;5115439;28;20484;-61
2023/10/23 11:28:05;;;;;;;31.08;21.45;;;;;;;7.97;72.63;98283.06;5115450;28;20024;-61